Time;durP1;ratioP1;P1;durP2;ratioP2;P2;SDS_P1;SDS_P2;PMS_P1;PMS_P2;Temp;Humidity;BMP_temperature;BMP_pressure;BME280_temperature;BME280_humidity;BME280_pressure;Samples;Min_cycle;Max_cycle;Signal;HPM_P1;HPM_P2
2022/09/19 00:01:51;;;;;;;;;;;;;;;13.38;92.92;101816.13;5070819;28;20384;-34
2022/09/19 00:04:20;;;;;;;;;;;;;;;13.40;93.46;101815.78;5069394;28;20282;-34
2022/09/19 00:06:48;;;;;;;;;;;;;;;13.42;94.09;101814.38;5068011;28;19979;-35
2022/09/19 00:09:17;;;;;;;;;;;;;;;13.45;95.63;101824.16;5071267;28;19966;-34
2022/09/19 00:11:46;;;;;;;;;;;;;;;13.47;97.61;101821.91;5066349;28;19933;-34
2022/09/19 00:14:15;;;;;;;;;;;;;;;13.47;98.63;101816.28;5072955;28;19925;-33
2022/09/19 00:16:44;;;;;;;;;;;;;;;13.45;99.54;101818.56;5065128;28;20057;-36
2022/09/19 00:19:15;;;;;;;;;;;;;;;13.40;100.00;101818.59;5072691;28;20586;-33
2022/09/19 00:21:43;;;;;;;;;;;;;;;13.36;100.00;101821.19;5057720;28;19986;-35
2022/09/19 00:26:57;;;;;;;;;;;;;;;13.35;100.00;101824.28;5063498;28;19960;-34
2022/09/19 00:29:25;;;;;;;;;;;;;;;13.35;100.00;101827.06;5072639;28;19928;-32
2022/09/19 00:31:53;;;;;;;;;;;;;;;13.34;100.00;101819.78;5066010;28;20398;-34
2022/09/19 00:34:22;;;;;;;;;;;;;;;13.34;100.00;101823.44;5055029;28;20289;-34
2022/09/19 00:36:50;;;;;;;;;;;;;;;13.37;100.00;101820.03;5065870;28;19979;-33
2022/09/19 00:39:19;;;;;;;;;;;;;;;13.40;100.00;101821.41;5054894;28;20340;-34
2022/09/19 00:41:48;;;;;;;;;;;;;;;13.42;100.00;101816.34;5062205;28;19971;-33
2022/09/19 00:44:34;;;;;;;;;;;;;;;13.47;100.00;101826.66;5075164;28;19978;-34
2022/09/19 00:47:05;;;;;;;;;;;;;;;13.51;100.00;101819.34;5061646;28;19925;-34
2022/09/19 00:49:37;;;;;;;;;;;;;;;13.52;100.00;101823.81;5065273;28;19929;-38
2022/09/19 00:52:07;;;;;;;;;;;;;;;13.47;100.00;101821.91;5067028;28;19978;-34
2022/09/19 00:54:40;;;;;;;;;;;;;;;13.39;100.00;101823.38;5053789;28;19990;-33
2022/09/19 00:57:09;;;;;;;;;;;;;;;13.32;100.00;101822.88;5099296;28;20384;-33
2022/09/19 00:59:38;;;;;;;;;;;;;;;13.26;100.00;101818.44;5054638;28;19970;-34
2022/09/19 01:02:06;;;;;;;;;;;;;;;13.20;100.00;101822.41;5065825;28;19990;-32
2022/09/19 01:04:36;;;;;;;;;;;;;;;13.15;100.00;101835.63;5054379;28;19924;-33
2022/09/19 01:07:07;;;;;;;;;;;;;;;13.11;100.00;101830.59;5065200;28;19974;-32
2022/09/19 01:09:43;;;;;;;;;;;;;;;13.13;100.00;101830.31;5053617;28;19936;-33
2022/09/19 01:12:19;;;;;;;;;;;;;;;13.09;100.00;101830.06;5064849;28;19931;-34
2022/09/19 01:15:09;;;;;;;;;;;;;;;13.07;100.00;101828.66;5054212;28;20378;-32
2022/09/19 01:17:42;;;;;;;;;;;;;;;13.09;100.00;101834.81;5064889;28;20351;-35
2022/09/19 01:20:22;;;;;;;;;;;;;;;13.10;100.00;101830.91;5054196;28;19932;-37
2022/09/19 01:23:03;;;;;;;;;;;;;;;13.13;100.00;101835.09;5068883;28;19929;-34
2022/09/19 01:25:34;;;;;;;;;;;;;;;13.16;100.00;101838.16;5086123;28;19935;-35
2022/09/19 01:28:10;;;;;;;;;;;;;;;13.19;100.00;101836.75;5064835;28;19958;-34
2022/09/19 01:31:16;;;;;;;;;;;;;;;13.21;100.00;101840.91;5051959;28;19925;-34
2022/09/19 01:33:38;;;;;;;;;;;;;;;13.23;100.00;101838.66;5061607;28;20019;-33
2022/09/19 01:36:07;;;;;;;;;;;;;;;13.27;100.00;101834.13;5088396;28;19947;-34
2022/09/19 01:38:40;;;;;;;;;;;;;;;13.31;100.00;101832.44;5061034;28;19944;-35
2022/09/19 01:41:08;;;;;;;;;;;;;;;13.35;100.00;101835.50;5072562;28;19928;-35
2022/09/19 01:43:37;;;;;;;;;;;;;;;13.39;100.00;101842.16;5069449;28;19925;-35
2022/09/19 01:46:07;;;;;;;;;;;;;;;13.42;100.00;101842.41;5073649;28;20046;-34
2022/09/19 01:48:43;;;;;;;;;;;;;;;13.45;100.00;101836.22;5088505;28;20396;-35
2022/09/19 01:51:18;;;;;;;;;;;;;;;13.49;100.00;101839.28;5088527;28;19977;-33
2022/09/19 01:53:51;;;;;;;;;;;;;;;13.52;100.00;101843.47;5069628;28;19935;-33
2022/09/19 01:56:36;;;;;;;;;;;;;;;13.53;100.00;101836.72;5068642;28;19929;-35
2022/09/19 01:59:11;;;;;;;;;;;;;;;13.54;100.00;101846.81;5085377;28;19925;-35
2022/09/19 02:01:45;;;;;;;;;;;;;;;13.53;100.00;101845.97;5072117;28;19954;-32
2022/09/19 02:04:16;;;;;;;;;;;;;;;13.57;100.00;101855.47;5068365;28;20447;-33
2022/09/19 02:06:46;;;;;;;;;;;;;;;13.57;100.00;101849.03;5088789;28;20286;-33
2022/09/19 02:09:19;;;;;;;;;;;;;;;13.54;100.00;101858.84;5088473;28;20301;-33
2022/09/19 02:11:50;;;;;;;;;;;;;;;13.51;100.00;101855.81;5051336;28;19928;-35
2022/09/19 02:14:21;;;;;;;;;;;;;;;13.46;100.00;101856.69;5056853;28;19968;-34
2022/09/19 02:16:58;;;;;;;;;;;;;;;13.45;100.00;101849.41;5053408;28;19964;-34
2022/09/19 02:19:31;;;;;;;;;;;;;;;13.43;100.00;101854.47;5082405;28;19925;-35
2022/09/19 02:22:01;;;;;;;;;;;;;;;13.42;100.00;101845.22;5087555;28;19928;-34
2022/09/19 02:24:31;;;;;;;;;;;;;;;13.40;100.00;101852.25;5088169;28;20377;-34
2022/09/19 02:27:07;;;;;;;;;;;;;;;13.38;100.00;101844.16;5070685;28;19924;-33
2022/09/19 02:29:40;;;;;;;;;;;;;;;13.40;100.00;101847.47;5088053;28;20454;-36
2022/09/19 02:32:09;;;;;;;;;;;;;;;13.44;100.00;101851.38;5071246;28;19936;-34
2022/09/19 02:34:37;;;;;;;;;;;;;;;13.45;100.00;101847.44;5087267;28;19928;-33
2022/09/19 02:37:09;;;;;;;;;;;;;;;13.42;100.00;101859.22;5072337;28;19924;-33
2022/09/19 02:39:42;;;;;;;;;;;;;;;13.35;100.00;101850.34;5067360;28;20456;-36
2022/09/19 02:42:19;;;;;;;;;;;;;;;13.29;100.00;101859.91;5056676;28;19924;-34
2022/09/19 02:44:53;;;;;;;;;;;;;;;13.23;100.00;101852.66;5090883;28;19931;-34
2022/09/19 02:47:26;;;;;;;;;;;;;;;13.19;100.00;101848.78;5054819;28;20428;-34
2022/09/19 02:49:59;;;;;;;;;;;;;;;13.17;100.00;101851.06;5060684;28;20389;-33
2022/09/19 02:52:30;;;;;;;;;;;;;;;13.18;100.00;101852.72;5072992;28;19939;-34
2022/09/19 02:55:06;;;;;;;;;;;;;;;13.20;100.00;101844.00;5055941;28;20363;-34
2022/09/19 02:57:35;;;;;;;;;;;;;;;13.20;100.00;101849.59;5056534;28;19925;-35
2022/09/19 03:00:05;;;;;;;;;;;;;;;13.20;100.00;101844.84;5054774;28;19928;-34
2022/09/19 03:02:40;;;;;;;;;;;;;;;13.22;100.00;101845.38;5066609;28;20390;-34
2022/09/19 03:05:11;;;;;;;;;;;;;;;13.24;100.00;101850.69;5071469;28;19968;-40
2022/09/19 03:07:42;;;;;;;;;;;;;;;13.24;100.00;101845.94;5061936;28;20301;-33
2022/09/19 03:10:18;;;;;;;;;;;;;;;13.24;100.00;101851.53;5084034;28;20013;-33
2022/09/19 03:13:10;;;;;;;;;;;;;;;13.24;100.00;101859.13;5066328;28;19928;-33
2022/09/19 03:15:49;;;;;;;;;;;;;;;13.25;100.00;101860.78;5064506;28;19939;-33
2022/09/19 03:18:25;;;;;;;;;;;;;;;13.26;100.00;101854.88;5065858;28;19932;-34
2022/09/19 03:20:55;;;;;;;;;;;;;;;13.29;100.00;101857.13;5066641;28;19967;-35
2022/09/19 03:23:24;;;;;;;;;;;;;;;13.33;100.00;101860.16;5070486;28;20374;-35
2022/09/19 03:25:52;;;;;;;;;;;;;;;13.32;100.00;101862.13;5070316;28;19929;-33
2022/09/19 03:28:21;;;;;;;;;;;;;;;13.31;100.00;101868.88;5058960;28;19925;-33
2022/09/19 03:30:56;;;;;;;;;;;;;;;13.30;100.00;101869.16;5053713;28;19931;-35
2022/09/19 03:33:24;;;;;;;;;;;;;;;13.28;100.00;101863.84;5059703;28;19978;-37
2022/09/19 03:35:52;;;;;;;;;;;;;;;13.26;100.00;101857.69;5051933;28;19955;-38
2022/09/19 03:38:21;;;;;;;;;;;;;;;13.21;100.00;101863.34;5061009;28;20439;-35
2022/09/19 03:40:50;;;;;;;;;;;;;;;13.16;100.00;101863.41;5051450;28;19928;-33
2022/09/19 03:43:19;;;;;;;;;;;;;;;13.11;100.00;101863.41;5060334;28;19959;-33
2022/09/19 03:45:46;;;;;;;;;;;;;;;13.07;100.00;101876.31;5051380;28;19936;-34
2022/09/19 03:48:15;;;;;;;;;;;;;;;13.08;100.00;101864.81;5061344;28;20356;-34
2022/09/19 03:50:44;;;;;;;;;;;;;;;13.10;100.00;101867.31;5068685;28;20038;-33
2022/09/19 03:53:15;;;;;;;;;;;;;;;13.11;100.00;101869.84;5065804;28;19971;-34
2022/09/19 03:55:43;;;;;;;;;;;;;;;13.12;100.00;101876.28;5051273;28;19937;-33
2022/09/19 03:58:14;;;;;;;;;;;;;;;13.13;100.00;101871.50;5069165;28;19924;-36
2022/09/19 04:00:42;;;;;;;;;;;;;;;13.15;100.00;101874.88;5070096;28;19985;-36
2022/09/19 04:03:12;;;;;;;;;;;;;;;13.16;100.00;101876.56;5057252;28;20020;-34
2022/09/19 04:05:42;;;;;;;;;;;;;;;13.18;100.00;101871.50;5069230;28;19968;-33
2022/09/19 04:08:10;;;;;;;;;;;;;;;13.21;100.00;101874.53;5066443;28;19963;-32
2022/09/19 04:10:40;;;;;;;;;;;;;;;13.23;100.00;101871.44;5103532;28;20382;-35
2022/09/19 04:13:07;;;;;;;;;;;;;;;13.24;100.00;101871.16;5058766;28;20452;-35
2022/09/19 04:15:35;;;;;;;;;;;;;;;13.27;100.00;101873.38;5067961;28;20365;-33
2022/09/19 04:18:05;;;;;;;;;;;;;;;13.28;100.00;101875.06;5065273;28;19943;-35
2022/09/19 04:20:33;;;;;;;;;;;;;;;13.26;100.00;101877.31;5083146;28;19929;-33
2022/09/19 04:23:20;;;;;;;;;;;;;;;13.25;100.00;101874.81;5061922;28;19972;-35
2022/09/19 04:26:09;;;;;;;;;;;;;;;13.25;100.00;101880.41;5068822;28;19931;-33
2022/09/19 04:28:39;;;;;;;;;;;;;;;13.24;100.00;101878.72;5060809;28;19932;-32
2022/09/19 04:31:08;;;;;;;;;;;;;;;13.20;100.00;101880.44;5067738;28;19936;-34
2022/09/19 04:33:37;;;;;;;;;;;;;;;13.15;100.00;101886.06;5077158;28;19929;-33
2022/09/19 04:36:05;;;;;;;;;;;;;;;13.12;99.70;101893.09;5065876;28;19932;-33
2022/09/19 04:38:36;;;;;;;;;;;;;;;13.15;100.00;101886.94;5062606;28;19932;-34
2022/09/19 04:41:12;;;;;;;;;;;;;;;13.16;100.00;101888.63;5064510;28;19925;-33
2022/09/19 04:43:40;;;;;;;;;;;;;;;13.17;100.00;101884.69;5063108;28;20398;-33
2022/09/19 04:46:21;;;;;;;;;;;;;;;13.19;100.00;101890.81;5101462;28;19928;-32
2022/09/19 04:48:52;;;;;;;;;;;;;;;13.21;100.00;101888.56;5070620;28;20331;-33
2022/09/19 04:51:25;;;;;;;;;;;;;;;13.23;100.00;101888.28;5058465;28;20027;-32
2022/09/19 04:53:55;;;;;;;;;;;;;;;13.25;100.00;101900.03;5057009;28;20024;-33
2022/09/19 04:56:22;;;;;;;;;;;;;;;13.26;100.00;101899.75;5059921;28;20027;-33
2022/09/19 04:58:52;;;;;;;;;;;;;;;13.27;100.00;101901.41;5056108;28;19959;-33
2022/09/19 05:01:20;;;;;;;;;;;;;;;13.28;100.00;101900.28;5060986;28;19943;-35
2022/09/19 05:03:48;;;;;;;;;;;;;;;13.28;100.00;101905.06;5054190;28;19929;-34
2022/09/19 05:06:17;;;;;;;;;;;;;;;13.29;100.00;101901.13;5063408;28;19975;-35
2022/09/19 05:08:45;;;;;;;;;;;;;;;13.30;100.00;101905.59;5086351;28;19929;-33
2022/09/19 05:11:25;;;;;;;;;;;;;;;13.30;100.00;101908.41;5072557;28;20018;-34
2022/09/19 05:13:53;;;;;;;;;;;;;;;13.30;100.00;101906.44;5087701;28;19928;-35
2022/09/19 05:16:26;;;;;;;;;;;;;;;13.30;100.00;101906.44;5063067;28;19932;-33
2022/09/19 05:18:58;;;;;;;;;;;;;;;13.31;100.00;101910.91;5053017;28;20394;-34
2022/09/19 05:21:26;;;;;;;;;;;;;;;13.32;100.00;101912.59;5063180;28;20457;-33
2022/09/19 05:23:55;;;;;;;;;;;;;;;13.30;100.00;101909.25;5052766;28;19929;-33
2022/09/19 05:26:24;;;;;;;;;;;;;;;13.29;100.00;101901.13;5061896;28;19928;-34
2022/09/19 05:28:55;;;;;;;;;;;;;;;13.28;100.00;101917.09;5071886;28;19929;-35
2022/09/19 05:31:26;;;;;;;;;;;;;;;13.28;100.00;101917.09;5059678;28;19974;-37
2022/09/19 05:34:13;;;;;;;;;;;;;;;13.27;100.00;101920.19;5073832;28;19943;-37
2022/09/19 05:36:42;;;;;;;;;;;;;;;13.28;100.00;101919.91;5076018;28;19971;-34
2022/09/19 05:39:18;;;;;;;;;;;;;;;13.28;100.00;101924.69;5070815;28;19978;-34
2022/09/19 05:42:06;;;;;;;;;;;;;;;13.29;100.00;101929.16;5063787;28;19983;-38
2022/09/19 05:44:34;;;;;;;;;;;;;;;13.31;100.00;101933.34;5050648;28;19935;-36
2022/09/19 05:47:04;;;;;;;;;;;;;;;13.31;100.00;101936.16;5067568;28;20309;-33
2022/09/19 05:49:32;;;;;;;;;;;;;;;13.31;100.00;101935.31;5070079;28;19928;-34
2022/09/19 05:53:51;;;;;;;;;;;;;;;13.30;100.00;101940.09;5070353;28;19969;-34
2022/09/19 05:54:49;;;;;;;;;;;;;;;13.28;100.00;101939.53;5071020;28;19928;-32
2022/09/19 05:57:54;;;;;;;;;;;;;;;13.30;100.00;101939.25;5057108;28;19967;-33
2022/09/19 06:00:24;;;;;;;;;;;;;;;13.33;100.00;101936.69;5051890;28;19945;-32
2022/09/19 06:02:53;;;;;;;;;;;;;;;13.40;100.00;101939.16;5078520;28;19928;-33
2022/09/19 06:05:20;;;;;;;;;;;;;;;13.44;100.00;101943.06;5052334;28;19936;-33
2022/09/19 06:07:50;;;;;;;;;;;;;;;13.49;100.00;101947.78;5070765;28;20050;-34
2022/09/19 06:10:18;;;;;;;;;;;;;;;13.52;100.00;101956.47;5070209;28;20031;-33
2022/09/19 06:12:46;;;;;;;;;;;;;;;13.51;100.00;101951.97;5058965;28;20364;-34
2022/09/19 06:15:16;;;;;;;;;;;;;;;13.48;100.00;101954.53;5070106;28;19924;-34
2022/09/19 06:17:45;;;;;;;;;;;;;;;13.42;100.00;101951.75;5057072;28;19928;-33
2022/09/19 06:20:32;;;;;;;;;;;;;;;13.38;100.00;101953.50;5087338;28;20028;-35
2022/09/19 06:23:10;;;;;;;;;;;;;;;13.36;100.00;101952.94;5062033;28;20404;-35
2022/09/19 06:25:39;;;;;;;;;;;;;;;13.38;100.00;101958.25;5082754;28;19963;-33
2022/09/19 06:28:10;;;;;;;;;;;;;;;13.43;100.00;101972.22;5062828;28;20590;-34
2022/09/19 06:30:44;;;;;;;;;;;;;;;13.44;100.00;101974.72;5049146;28;19928;-34
2022/09/19 06:33:15;;;;;;;;;;;;;;;13.42;100.00;101982.59;5061317;28;19928;-32
2022/09/19 06:35:51;;;;;;;;;;;;;;;13.42;100.00;101982.59;5049885;28;20390;-33
2022/09/19 06:38:19;;;;;;;;;;;;;;;13.44;100.00;101987.91;5061585;28;20374;-33
2022/09/19 06:40:47;;;;;;;;;;;;;;;13.51;100.00;102001.63;5083443;28;20015;-32
2022/09/19 06:43:46;;;;;;;;;;;;;;;13.55;100.00;101994.31;5065210;28;19948;-33
2022/09/19 06:46:37;;;;;;;;;;;;;;;13.57;100.00;101992.88;5070117;28;19924;-34
2022/09/19 06:49:28;;;;;;;;;;;;;;;13.58;100.00;101983.34;5066442;28;19931;-37
2022/09/19 06:52:11;;;;;;;;;;;;;;;13.54;100.00;101978.59;5069248;28;19933;-38
2022/09/19 06:54:39;;;;;;;;;;;;;;;13.51;100.00;101984.78;5075367;28;19931;-35
2022/09/19 06:57:07;;;;;;;;;;;;;;;13.47;100.00;101986.50;5069243;28;19925;-34
2022/09/19 06:59:34;;;;;;;;;;;;;;;13.39;100.00;101988.78;5080481;28;19944;-36
2022/09/19 07:02:06;;;;;;;;;;;;;;;13.31;100.00;101989.41;5083922;28;20027;-34
2022/09/19 07:04:34;;;;;;;;;;;;;;;13.21;100.00;101997.88;5070191;28;19928;-33
2022/09/19 07:07:15;;;;;;;;;;;;;;;13.14;100.00;101996.50;5085882;28;20023;-34
2022/09/19 07:09:50;;;;;;;;;;;;;;;13.11;100.00;101997.91;5092819;28;20039;-35
2022/09/19 07:12:17;;;;;;;;;;;;;;;13.10;100.00;102008.28;5086594;28;20141;-33
2022/09/19 07:14:49;;;;;;;;;;;;;;;13.17;100.00;101994.00;5057110;28;19935;-33
2022/09/19 07:17:18;;;;;;;;;;;;;;;13.36;100.00;102010.97;5072033;28;20276;-34
2022/09/19 07:19:48;;;;;;;;;;;;;;;13.56;100.00;102010.00;5074174;28;19929;-32
2022/09/19 07:23:00;;;;;;;;;;;;;;;13.70;100.00;102005.41;5055309;28;19932;-33
2022/09/19 07:25:46;;;;;;;;;;;;;;;13.77;100.00;102005.91;5094941;28;19987;-34
2022/09/19 07:28:15;;;;;;;;;;;;;;;13.76;100.00;102021.91;5050569;28;19936;-33
2022/09/19 07:30:45;;;;;;;;;;;;;;;13.73;100.00;102022.50;5061397;28;19929;-32
2022/09/19 07:33:21;;;;;;;;;;;;;;;13.69;100.00;102017.75;5051307;28;19963;-33
2022/09/19 07:35:51;;;;;;;;;;;;;;;13.65;100.00;102020.31;5069225;28;19925;-33
2022/09/19 07:38:20;;;;;;;;;;;;;;;13.61;100.00;102023.97;5070103;28;19951;-33
2022/09/19 07:41:08;;;;;;;;;;;;;;;13.59;100.00;102032.66;5043906;28;20301;-33
2022/09/19 07:44:01;;;;;;;;;;;;;;;13.71;100.00;102023.91;5051144;28;20026;-32
2022/09/19 07:49:56;;;;;;;;;;;;;;;14.28;100.00;102025.94;5067366;28;20405;-33
2022/09/19 07:52:36;;;;;;;;;;;;;;;14.39;100.00;102021.88;5063773;28;19928;-32
2022/09/19 07:55:06;;;;;;;;;;;;;;;14.66;100.00;102026.97;5088679;28;19983;-33
2022/09/19 07:57:33;;;;;;;;;;;;;;;15.21;100.00;102027.41;5054370;28;19929;-34
2022/09/19 08:00:01;;;;;;;;;;;;;;;15.49;100.00;102040.50;5055063;28;19933;-33
2022/09/19 08:02:34;;;;;;;;;;;;;;;15.61;100.00;102036.41;5073177;28;19924;-33
2022/09/19 08:05:03;;;;;;;;;;;;;;;15.63;100.00;102039.75;5053208;28;19935;-32
2022/09/19 08:07:30;;;;;;;;;;;;;;;15.63;100.00;102043.41;5058839;28;20294;-32
2022/09/19 08:09:58;;;;;;;;;;;;;;;15.66;100.00;102051.25;5050240;28;19966;-32
2022/09/19 08:12:30;;;;;;;;;;;;;;;15.84;100.00;102052.38;5066651;28;19932;-36
2022/09/19 08:15:09;;;;;;;;;;;;;;;16.07;100.00;102059.88;5084656;28;20372;-33
2022/09/19 08:17:36;;;;;;;;;;;;;;;16.17;100.00;102064.53;5059220;28;19925;-33
2022/09/19 08:20:07;;;;;;;;;;;;;;;16.27;100.00;102066.31;5069689;28;19968;-33
2022/09/19 08:22:41;;;;;;;;;;;;;;;16.37;100.00;102071.78;5085366;28;19932;-32
2022/09/19 08:25:10;;;;;;;;;;;;;;;16.55;100.00;102070.88;5071399;28;19933;-32
2022/09/19 08:27:39;;;;;;;;;;;;;;;16.71;99.46;102074.28;5078948;28;19928;-35
2022/09/19 08:30:07;;;;;;;;;;;;;;;16.79;98.59;102071.56;5072914;28;19931;-32
2022/09/19 08:32:36;;;;;;;;;;;;;;;16.97;99.12;102083.09;5062294;28;20380;-32
2022/09/19 08:35:05;;;;;;;;;;;;;;;17.09;98.57;102072.94;5074497;28;19932;-32
2022/09/19 08:37:34;;;;;;;;;;;;;;;17.22;97.12;102083.38;5061904;28;19936;-33
2022/09/19 08:40:16;;;;;;;;;;;;;;;17.30;94.04;102084.63;5072459;28;19959;-34
2022/09/19 08:42:51;;;;;;;;;;;;;;;17.27;92.45;102076.78;5060276;28;19979;-34
2022/09/19 08:45:25;;;;;;;;;;;;;;;17.34;94.60;102082.03;5072526;28;20454;-41
2022/09/19 08:47:54;;;;;;;;;;;;;;;17.65;96.43;102090.66;5077259;28;19986;-38
2022/09/19 08:50:24;;;;;;;;;;;;;;;18.00;94.51;102092.66;5056672;28;20019;-35
2022/09/19 08:52:57;;;;;;;;;;;;;;;18.19;92.31;102092.47;5064920;28;19970;-38
2022/09/19 08:55:29;;;;;;;;;;;;;;;18.25;90.49;102103.31;5053032;28;19971;-38
2022/09/19 08:58:01;;;;;;;;;;;;;;;18.49;90.16;102094.53;5065479;28;19924;-38
2022/09/19 09:00:49;;;;;;;;;;;;;;;18.88;88.31;102090.94;5053393;28;19924;-32
2022/09/19 09:03:25;;;;;;;;;;;;;;;19.04;85.89;102087.66;5065245;28;19924;-41
2022/09/19 09:05:56;;;;;;;;;;;;;;;18.96;82.60;102083.66;5053941;28;19928;-40
2022/09/19 09:08:34;;;;;;;;;;;;;;;18.87;83.85;102092.09;5064513;28;20401;-40
2022/09/19 09:11:20;;;;;;;;;;;;;;;19.12;85.84;102082.06;5052882;28;20354;-38
2022/09/19 09:13:57;;;;;;;;;;;;;;;19.53;83.13;102090.19;5094117;28;20468;-33
2022/09/19 09:16:35;;;;;;;;;;;;;;;20.07;82.10;102090.72;5089586;28;19929;-41
2022/09/19 09:19:18;;;;;;;;;;;;;;;20.76;82.05;102089.84;5089552;28;20361;-37
2022/09/19 09:21:50;;;;;;;;;;;;;;;21.36;74.40;102098.13;5071735;28;19924;-32
2022/09/19 09:24:30;;;;;;;;;;;;;;;21.73;66.81;102089.84;5072436;28;19978;-33
2022/09/19 09:27:33;;;;;;;;;;;;;;;22.14;63.85;102092.72;5068709;28;19939;-34
2022/09/19 09:30:16;;;;;;;;;;;;;;;22.54;62.38;102083.63;5062364;28;20396;-37
2022/09/19 09:32:54;;;;;;;;;;;;;;;22.95;60.71;102088.38;5054602;28;19959;-36
2022/09/19 09:35:27;;;;;;;;;;;;;;;23.31;57.94;102088.41;5077895;28;19940;-38
2022/09/19 09:38:01;;;;;;;;;;;;;;;23.77;56.90;102088.28;5053688;28;20403;-35
2022/09/19 09:43:27;;;;;;;;;;;;;;;24.00;50.11;102095.91;5056827;28;19951;-37
2022/09/19 09:45:59;;;;;;;;;;;;;;;24.07;50.12;102098.16;5060110;28;19929;-34
2022/09/19 09:48:31;;;;;;;;;;;;;;;24.21;50.37;102092.03;5053596;28;20381;-33
2022/09/19 09:51:16;;;;;;;;;;;;;;;24.28;50.90;102092.28;5063675;28;19935;-41
2022/09/19 09:53:52;;;;;;;;;;;;;;;24.33;49.95;102090.03;5084778;28;20328;-33
2022/09/19 09:56:24;;;;;;;;;;;;;;;23.87;51.25;102110.56;5097811;28;20339;-35
2022/09/19 09:59:00;;;;;;;;;;;;;;;23.10;53.52;102113.31;5067652;28;20336;-34
2022/09/19 10:04:26;;;;;;;;;;;;;;;21.55;59.72;102124.06;5064466;28;19939;-34
2022/09/19 10:07:09;;;;;;;;;;;;;;;21.10;63.10;102122.91;5067049;28;19928;-37
2022/09/19 10:09:41;;;;;;;;;;;;;;;20.80;66.91;102120.00;5063752;28;19928;-38
2022/09/19 10:12:18;;;;;;;;;;;;;;;20.70;68.84;102114.69;5066748;28;19928;-33
2022/09/19 10:15:13;;;;;;;;;;;;;;;20.50;67.65;102110.56;5061990;28;19964;-41
2022/09/19 10:17:47;;;;;;;;;;;;;;;20.36;64.77;102109.91;5103602;28;19997;-41
2022/09/19 10:20:19;;;;;;;;;;;;;;;20.37;66.73;102099.44;5078371;28;20378;-36
2022/09/19 10:22:47;;;;;;;;;;;;;;;20.64;67.43;102107.53;5053806;28;20370;-41
2022/09/19 10:25:18;;;;;;;;;;;;;;;20.95;64.61;102102.44;5058402;28;19928;-42
2022/09/19 10:27:49;;;;;;;;;;;;;;;21.06;64.19;102110.56;5071791;28;19929;-33
2022/09/19 10:30:28;;;;;;;;;;;;;;;21.34;65.04;102117.50;5059050;28;19931;-34
2022/09/19 10:33:17;;;;;;;;;;;;;;;21.42;63.53;102113.75;5071327;28;19928;-33
2022/09/19 10:35:45;;;;;;;;;;;;;;;21.17;62.17;102118.38;5059621;28;19925;-34
2022/09/19 10:38:16;;;;;;;;;;;;;;;20.96;64.17;102112.63;5053270;28;19983;-36
2022/09/19 10:40:54;;;;;;;;;;;;;;;21.16;65.04;102121.56;5058209;28;19932;-36
2022/09/19 10:43:30;;;;;;;;;;;;;;;21.60;62.63;102137.22;5067226;28;19990;-34
2022/09/19 10:46:06;;;;;;;;;;;;;;;21.90;60.88;102136.03;5091697;28;19924;-34
2022/09/19 10:48:37;;;;;;;;;;;;;;;21.87;60.23;102133.03;5069405;28;20293;-42
2022/09/19 10:51:08;;;;;;;;;;;;;;;21.58;58.77;102131.88;5087548;28;19930;-38
2022/09/19 10:53:39;;;;;;;;;;;;;;;21.45;62.09;102137.81;5069881;28;19936;-36
2022/09/19 10:56:11;;;;;;;;;;;;;;;21.57;61.55;102138.75;5067123;28;19925;-44
2022/09/19 10:58:44;;;;;;;;;;;;;;;21.66;57.79;102136.69;5099011;28;19939;-35
2022/09/19 11:01:23;;;;;;;;;;;;;;;21.51;56.71;102148.66;5067201;28;19933;-34
2022/09/19 11:03:58;;;;;;;;;;;;;;;21.20;58.92;102148.94;5082516;28;19924;-36
2022/09/19 11:06:29;;;;;;;;;;;;;;;20.90;62.15;102142.34;5066761;28;19928;-38
2022/09/19 11:08:57;;;;;;;;;;;;;;;20.85;65.03;102134.00;5057460;28;20027;-40
2022/09/19 11:11:45;;;;;;;;;;;;;;;21.06;67.98;102138.94;5089386;28;19929;-33
2022/09/19 11:14:26;;;;;;;;;;;;;;;21.43;65.72;102143.00;5053772;28;19976;-34
2022/09/19 11:17:06;;;;;;;;;;;;;;;21.67;65.00;102146.03;5057564;28;19962;-33
2022/09/19 11:19:48;;;;;;;;;;;;;;;21.87;62.81;102135.88;5072134;28;19932;-39
2022/09/19 11:22:26;;;;;;;;;;;;;;;21.96;58.18;102134.66;5082323;28;19924;-42
2022/09/19 11:24:59;;;;;;;;;;;;;;;21.99;56.12;102133.09;5067057;28;19925;-39
2022/09/19 11:27:35;;;;;;;;;;;;;;;22.05;56.38;102137.44;5069574;28;19924;-34
2022/09/19 11:30:11;;;;;;;;;;;;;;;22.18;55.48;102136.31;5087067;28;19924;-37
2022/09/19 11:32:55;;;;;;;;;;;;;;;22.40;55.60;102135.13;5060973;28;20301;-36
2022/09/19 11:35:49;;;;;;;;;;;;;;;22.56;53.04;102135.34;5050619;28;20421;-36
2022/09/19 11:38:32;;;;;;;;;;;;;;;22.50;52.39;102143.25;5067112;28;19929;-41
2022/09/19 11:41:29;;;;;;;;;;;;;;;22.48;52.54;102127.72;5069186;28;19924;-35
2022/09/19 11:44:05;;;;;;;;;;;;;;;22.56;51.67;102136.16;5066240;28;19928;-33
2022/09/19 11:46:39;;;;;;;;;;;;;;;22.63;52.33;102142.09;5051132;28;19925;-41
2022/09/19 11:49:18;;;;;;;;;;;;;;;22.66;52.23;102134.88;5059847;28;19924;-33
2022/09/19 11:51:50;;;;;;;;;;;;;;;22.73;51.42;102135.16;5071311;28;19924;-34
2022/09/19 11:54:33;;;;;;;;;;;;;;;22.77;52.01;102130.47;5083915;28;19931;-36
2022/09/19 11:57:06;;;;;;;;;;;;;;;22.76;50.23;102127.94;5072578;28;19936;-34
2022/09/19 12:00:00;;;;;;;;;;;;;;;22.73;50.70;102126.63;5074066;28;19939;-33
2022/09/19 12:02:50;;;;;;;;;;;;;;;22.69;51.80;102123.63;5071951;28;19950;-37
2022/09/19 12:05:28;;;;;;;;;;;;;;;22.64;52.69;102121.00;5054427;28;19970;-40
2022/09/19 12:08:07;;;;;;;;;;;;;;;22.57;52.46;102131.31;5070741;28;19925;-38
2022/09/19 12:10:36;;;;;;;;;;;;;;;22.32;51.18;102122.69;5090263;28;19982;-42
2022/09/19 12:13:09;;;;;;;;;;;;;;;22.05;50.68;102126.06;5072459;28;20028;-40
2022/09/19 12:15:45;;;;;;;;;;;;;;;21.85;52.69;102129.72;5090580;28;19943;-32
2022/09/19 12:18:16;;;;;;;;;;;;;;;21.86;54.35;102123.69;5072751;28;19924;-36
2022/09/19 12:20:48;;;;;;;;;;;;;;;21.83;54.16;102121.53;5070571;28;19975;-33
2022/09/19 12:26:13;;;;;;;;;;;;;;;21.27;53.09;102129.38;5073472;28;19925;-36
2022/09/19 12:28:41;;;;;;;;;;;;;;;20.98;52.95;102138.63;5072619;28;20426;-43
2022/09/19 12:31:20;;;;;;;;;;;;;;;20.75;53.72;102136.38;5063751;28;19947;-38
2022/09/19 12:33:51;;;;;;;;;;;;;;;20.49;53.84;102139.25;5072916;28;19974;-33
2022/09/19 12:36:24;;;;;;;;;;;;;;;20.33;55.37;102136.09;5063267;28;20373;-33
2022/09/19 12:38:56;;;;;;;;;;;;;;;20.23;54.64;102140.06;5088121;28;19924;-36
2022/09/19 12:41:30;;;;;;;;;;;;;;;20.08;53.73;102126.41;5079509;28;20290;-33
2022/09/19 12:44:03;;;;;;;;;;;;;;;19.85;53.50;102127.72;5072462;28;19924;-35
2022/09/19 12:46:37;;;;;;;;;;;;;;;19.76;53.75;102130.56;5072397;28;19928;-33
2022/09/19 12:49:14;;;;;;;;;;;;;;;19.70;54.29;102140.38;5089764;28;19978;-36
2022/09/19 12:51:50;;;;;;;;;;;;;;;19.60;53.10;102133.00;5078574;28;19987;-35
2022/09/19 12:54:21;;;;;;;;;;;;;;;19.53;54.11;102135.50;5072911;28;20002;-35
2022/09/19 12:56:51;;;;;;;;;;;;;;;19.55;56.07;102130.34;5063040;28;19931;-43
2022/09/19 12:59:23;;;;;;;;;;;;;;;19.55;55.37;102124.69;5071839;28;19933;-41
2022/09/19 13:01:56;;;;;;;;;;;;;;;19.48;55.93;102129.94;5063363;28;19977;-40
2022/09/19 13:04:31;;;;;;;;;;;;;;;19.45;56.54;102139.09;5072811;28;19925;-38
2022/09/19 13:07:09;;;;;;;;;;;;;;;19.44;57.09;102142.25;5061793;28;19974;-33
2022/09/19 13:09:42;;;;;;;;;;;;;;;19.36;55.18;102137.41;5072670;28;19978;-34
2022/09/19 13:12:15;;;;;;;;;;;;;;;19.25;53.75;102132.03;5062861;28;19929;-34
2022/09/19 13:14:46;;;;;;;;;;;;;;;19.15;53.99;102145.66;5072720;28;19932;-34
2022/09/19 13:25:43;;;;;;;;;;;;;;;18.91;55.83;102138.38;5070862;28;19970;-38
2022/09/19 13:28:40;;;;;;;;;;;;;;;18.91;56.76;102146.88;5064076;28;19932;-38